createdAt,value
2023-05-01T00:02:25.918Z,18.20
2023-05-01T00:04:58.559Z,18.19
2023-05-01T00:07:31.473Z,18.20
2023-05-01T00:10:04.711Z,18.20
2023-05-01T00:12:35.989Z,18.21
2023-05-01T00:15:08.944Z,18.21
2023-05-01T00:17:40.402Z,18.22
2023-05-01T00:20:14.038Z,18.22
2023-05-01T00:22:46.383Z,18.21
2023-05-01T00:25:18.280Z,18.20
2023-05-01T00:27:49.725Z,18.19
2023-05-01T00:30:21.567Z,18.18
2023-05-01T00:32:53.009Z,18.17
2023-05-01T00:35:24.434Z,18.17
2023-05-01T00:37:56.472Z,18.16
2023-05-01T00:40:28.196Z,18.17
2023-05-01T00:42:59.713Z,18.18
2023-05-01T00:45:31.374Z,18.17
2023-05-01T00:48:03.369Z,18.18
2023-05-01T00:50:35.072Z,18.17
2023-05-01T00:53:07.438Z,18.17
2023-05-01T00:55:39.775Z,18.17
2023-05-01T00:58:12.154Z,18.17
2023-05-01T01:00:43.663Z,18.16
2023-05-01T01:03:15.257Z,18.15
2023-05-01T01:05:55.272Z,18.14
2023-05-01T01:08:32.513Z,18.13
2023-05-01T01:11:15.715Z,18.12
2023-05-01T01:13:54.466Z,18.11
2023-05-01T01:16:34.059Z,18.10
2023-05-01T01:19:26.182Z,18.11
2023-05-01T01:22:04.143Z,18.11
2023-05-01T01:24:59.319Z,18.10
2023-05-01T01:27:56.322Z,18.05
2023-05-01T01:30:45.327Z,17.95
2023-05-01T01:33:37.716Z,17.88
2023-05-01T01:36:17.559Z,17.87
2023-05-01T01:38:55.781Z,17.84
2023-05-01T01:41:34.487Z,17.81
2023-05-01T01:44:10.603Z,17.82
2023-05-01T01:46:44.032Z,17.79
2023-05-01T01:49:21.292Z,17.74
2023-05-01T01:51:55.392Z,17.73
2023-05-01T01:54:32.758Z,17.72
2023-05-01T01:57:06.380Z,17.71
2023-05-01T01:59:38.583Z,17.73
2023-05-01T02:02:12.493Z,17.74
2023-05-01T02:04:45.871Z,17.76
2023-05-01T02:07:18.914Z,17.79
2023-05-01T02:09:51.793Z,17.81
2023-05-01T02:12:27.294Z,17.83
2023-05-01T02:14:59.935Z,17.84
2023-05-01T02:17:32.464Z,17.85
2023-05-01T02:20:05.792Z,17.85
2023-05-01T02:22:38.601Z,17.84
2023-05-01T02:25:12.874Z,17.85
2023-05-01T02:27:49.102Z,17.84
2023-05-01T02:30:20.830Z,17.83
2023-05-01T02:32:52.417Z,17.82
2023-05-01T02:35:24.287Z,17.81
2023-05-01T02:37:55.856Z,17.81
2023-05-01T02:40:27.897Z,17.82
2023-05-01T02:43:03.463Z,17.82
2023-05-01T02:45:38.737Z,17.81
2023-05-01T02:48:14.924Z,17.81
2023-05-01T02:50:48.636Z,17.80
2023-05-01T02:53:21.428Z,17.80
2023-05-01T02:55:55.746Z,17.79
2023-05-01T02:58:28.559Z,17.80
2023-05-01T03:01:00.183Z,17.78
2023-05-01T03:03:31.499Z,17.78
2023-05-01T03:06:03.469Z,17.77
2023-05-01T03:08:35.282Z,17.75
2023-05-01T03:11:09.287Z,17.75
2023-05-01T03:13:40.461Z,17.76
2023-05-01T03:16:12.022Z,17.77
2023-05-01T03:18:43.583Z,17.77
2023-05-01T03:21:15.647Z,17.77
2023-05-01T03:23:47.446Z,17.77
2023-05-01T03:26:18.899Z,17.77
2023-05-01T03:28:50.313Z,17.76
2023-05-01T03:31:22.064Z,17.75
2023-05-01T03:33:54.779Z,17.76
2023-05-01T03:36:27.579Z,17.76
2023-05-01T03:38:59.807Z,17.76
2023-05-01T03:41:49.751Z,17.75
2023-05-01T03:44:28.027Z,17.75
2023-05-01T03:46:59.667Z,17.74
2023-05-01T03:49:33.027Z,17.73
2023-05-01T03:52:04.503Z,17.72
2023-05-01T03:54:36.143Z,17.71
2023-05-01T03:57:18.460Z,17.70
2023-05-01T03:59:50.170Z,17.69
2023-05-01T04:02:22.649Z,17.67
2023-05-01T04:04:54.859Z,17.67
2023-05-01T04:07:27.795Z,17.66
2023-05-01T04:09:59.100Z,17.66
2023-05-01T04:12:30.891Z,17.65
2023-05-01T04:15:01.973Z,17.64
2023-05-01T04:17:35.131Z,17.64
2023-05-01T04:20:08.304Z,17.63
2023-05-01T04:22:40.336Z,17.62
2023-05-01T04:25:12.757Z,17.62
2023-05-01T04:27:44.459Z,17.61
2023-05-01T04:30:17.034Z,17.61
2023-05-01T04:32:48.332Z,17.62
2023-05-01T04:35:20.446Z,17.63
2023-05-01T04:37:51.724Z,17.64
2023-05-01T04:40:23.221Z,17.65
2023-05-01T04:42:54.718Z,17.65
2023-05-01T04:45:26.233Z,17.65
2023-05-01T04:47:58.252Z,17.66
2023-05-01T04:50:30.551Z,17.68
2023-05-01T04:53:01.648Z,17.69
2023-05-01T04:55:33.273Z,17.69
2023-05-01T04:58:11.191Z,17.69
2023-05-01T05:00:43.057Z,17.72
2023-05-01T05:03:19.930Z,17.74
2023-05-01T05:05:51.413Z,17.76
2023-05-01T05:08:24.248Z,17.78
2023-05-01T05:11:01.061Z,17.81
2023-05-01T05:13:44.723Z,17.82
2023-05-01T05:16:16.828Z,17.83
2023-05-01T05:18:48.426Z,17.83
2023-05-01T05:21:19.610Z,17.85
2023-05-01T05:23:54.517Z,17.85
2023-05-01T05:26:27.297Z,17.86
2023-05-01T05:29:00.373Z,17.89
2023-05-01T05:31:32.210Z,17.93
2023-05-01T05:34:03.720Z,18.06
2023-05-01T05:36:35.829Z,18.32
2023-05-01T05:39:07.292Z,18.54
2023-05-01T05:41:39.065Z,18.72
2023-05-01T05:44:11.365Z,18.87
2023-05-01T05:46:43.521Z,19.00
2023-05-01T05:49:16.077Z,19.10
2023-05-01T05:51:47.680Z,19.17
2023-05-01T05:54:21.028Z,19.26
2023-05-01T05:56:54.808Z,19.34
2023-05-01T05:59:27.318Z,19.42
2023-05-01T06:01:59.307Z,19.49
2023-05-01T06:04:30.896Z,19.54
2023-05-01T06:07:02.137Z,19.59
2023-05-01T06:09:34.147Z,19.63
2023-05-01T06:12:07.390Z,19.66
2023-05-01T06:14:41.542Z,19.68
2023-05-01T06:17:14.371Z,19.71
2023-05-01T06:19:45.550Z,19.74
2023-05-01T06:22:17.091Z,19.78
2023-05-01T06:24:57.379Z,19.83
2023-05-01T06:27:29.870Z,19.90
2023-05-01T06:30:01.423Z,19.94
2023-05-01T06:32:33.521Z,19.90
2023-05-01T06:35:06.224Z,19.88
2023-05-01T06:37:38.630Z,19.84
2023-05-01T06:40:13.729Z,19.83
2023-05-01T06:42:46.549Z,19.86
2023-05-01T06:45:17.824Z,19.90
2023-05-01T06:47:49.222Z,19.95
2023-05-01T06:50:20.867Z,20.00
2023-05-01T06:52:52.217Z,20.07
2023-05-01T06:55:23.989Z,20.13
2023-05-01T06:57:56.026Z,20.18
2023-05-01T07:00:27.307Z,20.18
2023-05-01T07:02:58.988Z,20.17
2023-05-01T07:05:30.560Z,20.20
2023-05-01T07:08:02.513Z,20.22
2023-05-01T07:10:34.063Z,20.21
2023-05-01T07:13:05.635Z,20.23
2023-05-01T07:15:36.852Z,20.22
2023-05-01T07:18:08.603Z,20.15
2023-05-01T07:20:40.393Z,20.03
2023-05-01T07:23:11.779Z,19.97
2023-05-01T07:25:45.461Z,19.94
2023-05-01T07:28:18.201Z,19.98
2023-05-01T07:30:49.254Z,19.98
2023-05-01T07:33:20.775Z,19.98
2023-05-01T07:35:51.959Z,19.89
2023-05-01T07:38:23.361Z,19.82
2023-05-01T07:40:57.135Z,19.81
2023-05-01T07:43:28.591Z,19.80
2023-05-01T07:46:01.655Z,19.75
2023-05-01T07:48:33.509Z,19.67
2023-05-01T07:51:07.376Z,19.58
2023-05-01T07:53:40.825Z,19.54
2023-05-01T07:56:15.209Z,19.52
2023-05-01T07:58:47.167Z,19.51
2023-05-01T08:01:18.970Z,19.44
2023-05-01T08:03:51.210Z,19.42
2023-05-01T08:06:23.096Z,19.42
2023-05-01T08:08:54.436Z,19.37
2023-05-01T08:11:26.681Z,19.32
2023-05-01T08:13:58.358Z,19.26
2023-05-01T08:16:30.422Z,19.18
2023-05-01T08:19:02.189Z,19.16
2023-05-01T08:21:36.383Z,19.17
2023-05-01T08:24:10.711Z,19.16
2023-05-01T08:26:41.980Z,19.12
2023-05-01T08:29:13.220Z,19.09
2023-05-01T08:31:44.578Z,19.07
2023-05-01T08:34:17.764Z,19.03
2023-05-01T08:36:49.619Z,18.93
2023-05-01T08:39:21.074Z,18.81
2023-05-01T08:41:54.179Z,18.77
2023-05-01T08:44:29.309Z,18.87
2023-05-01T08:47:12.709Z,19.11
2023-05-01T08:49:45.577Z,19.31
2023-05-01T08:52:17.828Z,19.40
2023-05-01T08:54:51.532Z,19.50
2023-05-01T08:57:24.182Z,19.52
2023-05-01T08:59:58.321Z,19.55
2023-05-01T09:02:30.221Z,19.64
2023-05-01T09:05:04.241Z,19.73
2023-05-01T09:07:36.233Z,19.81
2023-05-01T09:10:09.039Z,19.92
2023-05-01T09:12:41.226Z,20.06
2023-05-01T09:15:13.875Z,20.19
2023-05-01T09:17:45.978Z,20.31
2023-05-01T09:20:18.506Z,20.44
2023-05-01T09:22:50.703Z,20.54
2023-05-01T09:25:22.373Z,20.62
2023-05-01T09:27:53.979Z,20.68
2023-05-01T09:30:36.607Z,20.76
2023-05-01T09:33:15.486Z,20.82
2023-05-01T09:35:55.156Z,20.85
2023-05-01T09:38:28.814Z,20.89
2023-05-01T09:41:06.708Z,20.91
2023-05-01T09:43:38.145Z,20.96
2023-05-01T09:46:11.660Z,21.00
2023-05-01T09:48:53.070Z,21.06
2023-05-01T09:51:28.369Z,21.10
2023-05-01T09:54:01.564Z,21.16
2023-05-01T09:56:34.871Z,21.19
2023-05-01T09:59:20.731Z,21.23
2023-05-01T10:01:52.781Z,21.27
2023-05-01T10:04:34.455Z,21.29
2023-05-01T10:07:16.058Z,21.29
2023-05-01T10:09:47.290Z,21.28
2023-05-01T10:12:26.655Z,21.30
2023-05-01T10:15:03.430Z,21.28
2023-05-01T10:17:41.848Z,21.13
2023-05-01T10:20:15.143Z,20.98
2023-05-01T10:22:46.811Z,20.89
2023-05-01T10:25:18.967Z,20.83
2023-05-01T10:27:53.174Z,20.86
2023-05-01T10:30:27.441Z,20.96
2023-05-01T10:32:59.141Z,21.09
2023-05-01T10:35:35.012Z,21.16
2023-05-01T10:38:09.535Z,21.24
2023-05-01T10:40:52.035Z,21.26
2023-05-01T10:43:29.176Z,21.28
2023-05-01T10:46:33.738Z,21.34
2023-05-01T10:49:05.299Z,21.43
2023-05-01T10:51:58.048Z,21.46
2023-05-01T10:54:30.536Z,21.50
2023-05-01T10:57:03.229Z,21.49
2023-05-01T11:00:01.855Z,21.39
2023-05-01T11:02:33.705Z,20.97
2023-05-01T11:05:05.803Z,20.66
2023-05-01T11:07:37.068Z,20.47
2023-05-01T11:10:28.459Z,20.36
2023-05-01T11:12:59.530Z,20.24
2023-05-01T11:15:34.941Z,20.16
2023-05-01T11:18:07.519Z,20.25
2023-05-01T11:20:52.414Z,20.35
2023-05-01T11:23:25.768Z,20.39
2023-05-01T11:26:06.652Z,20.34
2023-05-01T11:28:39.709Z,20.28
2023-05-01T11:31:11.711Z,20.25
2023-05-01T11:33:42.986Z,20.29
2023-05-01T11:36:14.518Z,20.29
2023-05-01T11:38:53.984Z,20.29
2023-05-01T11:41:26.322Z,20.32
2023-05-01T11:43:58.636Z,20.40
2023-05-01T11:46:31.986Z,20.45
2023-05-01T11:49:04.773Z,20.45
2023-05-01T11:51:36.494Z,20.46
2023-05-01T11:54:09.649Z,20.49
2023-05-01T11:56:41.098Z,20.52
2023-05-01T11:59:17.266Z,20.58
2023-05-01T12:01:49.051Z,20.60
2023-05-01T12:04:32.023Z,20.63
2023-05-01T12:07:03.919Z,20.63
2023-05-01T12:09:35.794Z,20.65
2023-05-01T12:12:08.043Z,20.71
2023-05-01T12:14:40.725Z,20.77
2023-05-01T12:17:12.834Z,20.82
2023-05-01T12:19:51.115Z,20.86
2023-05-01T12:22:23.228Z,20.90
2023-05-01T12:24:55.010Z,20.96
2023-05-01T12:27:26.577Z,21.03
2023-05-01T12:29:58.345Z,21.09
2023-05-01T12:32:34.763Z,21.14
2023-05-01T12:35:16.387Z,21.17
2023-05-01T12:37:48.218Z,21.21
2023-05-01T12:40:19.839Z,21.23
2023-05-01T12:42:58.242Z,21.25
2023-05-01T12:45:30.030Z,21.28
2023-05-01T12:48:01.502Z,21.31
2023-05-01T12:50:39.551Z,21.34
2023-05-01T12:53:11.536Z,21.36
2023-05-01T12:55:50.688Z,21.38
2023-05-01T12:58:22.342Z,21.41
2023-05-01T13:00:55.049Z,21.42
2023-05-01T13:03:28.600Z,21.45
2023-05-01T13:06:01.313Z,21.49
2023-05-01T13:08:35.083Z,21.50
2023-05-01T13:11:14.293Z,21.50
2023-05-01T13:13:48.488Z,21.45
2023-05-01T13:16:21.181Z,21.41
2023-05-01T13:18:54.029Z,21.38
2023-05-01T13:21:27.246Z,21.36
2023-05-01T13:24:00.985Z,21.31
2023-05-01T13:26:33.780Z,21.25
2023-05-01T13:29:07.046Z,21.22
2023-05-01T13:31:38.325Z,21.18
2023-05-01T13:34:09.436Z,21.16
2023-05-01T13:36:44.103Z,21.14
2023-05-01T13:39:21.947Z,21.13
2023-05-01T13:41:53.942Z,21.12
2023-05-01T13:44:25.481Z,21.09
2023-05-01T13:46:57.133Z,21.08
2023-05-01T13:49:28.818Z,21.06
2023-05-01T13:52:00.352Z,21.04
2023-05-01T13:54:31.557Z,21.03
2023-05-01T13:57:03.651Z,21.01
2023-05-01T13:59:40.385Z,21.00
2023-05-01T14:02:22.002Z,20.99
2023-05-01T14:04:54.003Z,20.98
2023-05-01T14:07:26.742Z,20.98
2023-05-01T14:10:01.028Z,20.99
2023-05-01T14:12:33.919Z,20.98
2023-05-01T14:15:06.316Z,20.97
2023-05-01T14:17:39.459Z,20.96
2023-05-01T14:20:12.394Z,20.94
2023-05-01T14:22:46.849Z,20.94
2023-05-01T14:25:27.347Z,20.94
2023-05-01T14:28:00.477Z,20.93
2023-05-01T14:30:34.617Z,20.92
2023-05-01T14:33:07.572Z,20.90
2023-05-01T14:35:45.645Z,20.89
2023-05-01T14:38:18.304Z,20.89
2023-05-01T14:40:50.042Z,20.88
2023-05-01T14:43:22.822Z,20.86
2023-05-01T14:45:56.196Z,20.83
2023-05-01T14:48:31.685Z,20.79
2023-05-01T14:51:06.627Z,20.75
2023-05-01T14:53:39.321Z,20.72
2023-05-01T14:56:11.636Z,20.69
2023-05-01T14:58:43.190Z,20.69
2023-05-01T15:01:15.088Z,20.68
2023-05-01T15:03:46.806Z,20.67
2023-05-01T15:06:19.142Z,20.67
2023-05-01T15:08:50.716Z,20.66
2023-05-01T15:11:22.362Z,20.66
2023-05-01T15:13:53.804Z,20.66
2023-05-01T15:16:25.259Z,20.66
2023-05-01T15:18:56.698Z,20.65
2023-05-01T15:21:28.333Z,20.61
2023-05-01T15:23:59.574Z,20.59
2023-05-01T15:26:31.845Z,20.56
2023-05-01T15:29:03.601Z,20.53
2023-05-01T15:31:35.695Z,20.51
2023-05-01T15:34:07.208Z,20.49
2023-05-01T15:36:38.478Z,20.49
2023-05-01T15:39:12.158Z,20.48
2023-05-01T15:41:44.400Z,20.46
2023-05-01T15:44:16.364Z,20.43
2023-05-01T15:46:49.437Z,20.41
2023-05-01T15:49:20.531Z,20.38
2023-05-01T15:51:51.793Z,20.33
2023-05-01T15:54:24.709Z,20.27
2023-05-01T15:56:56.334Z,20.19
2023-05-01T15:59:28.212Z,20.12
2023-05-01T16:02:00.216Z,20.05
2023-05-01T16:04:31.546Z,19.97
2023-05-01T16:07:06.185Z,19.89
2023-05-01T16:09:37.577Z,19.82
2023-05-01T16:12:09.688Z,19.75
2023-05-01T16:14:42.346Z,19.66
2023-05-01T16:17:13.964Z,19.59
2023-05-01T16:19:44.892Z,19.52
2023-05-01T16:22:16.986Z,19.46
2023-05-01T16:24:48.749Z,19.43
2023-05-01T16:27:20.918Z,19.40
2023-05-01T16:29:52.690Z,19.36
2023-05-01T16:32:24.584Z,19.34
2023-05-01T16:34:56.717Z,19.34
2023-05-01T16:37:28.768Z,19.32
2023-05-01T16:40:02.256Z,19.31
2023-05-01T16:42:36.480Z,19.29
2023-05-01T16:45:10.029Z,19.25
2023-05-01T16:47:41.490Z,19.22
2023-05-01T16:50:14.204Z,19.22
2023-05-01T16:52:45.828Z,19.21
2023-05-01T16:55:18.044Z,19.22
2023-05-01T16:57:49.036Z,19.22
2023-05-01T17:00:21.434Z,19.22
2023-05-01T17:02:55.212Z,19.19
2023-05-01T17:05:27.045Z,19.18
2023-05-01T17:07:58.383Z,19.16
2023-05-01T17:10:30.384Z,19.16
2023-05-01T17:13:01.821Z,19.16
2023-05-01T17:15:33.644Z,19.16
2023-05-01T17:18:06.089Z,19.15
2023-05-01T17:20:37.585Z,19.14
2023-05-01T17:23:09.808Z,19.13
2023-05-01T17:25:40.939Z,19.11
2023-05-01T17:28:12.640Z,19.09
2023-05-01T17:30:43.840Z,19.09
2023-05-01T17:33:15.871Z,19.08
2023-05-01T17:35:47.299Z,19.05
2023-05-01T17:38:18.430Z,19.03
2023-05-01T17:40:49.688Z,19.00
2023-05-01T17:43:21.744Z,18.97
2023-05-01T17:45:54.699Z,18.93
2023-05-01T17:48:26.237Z,18.91
2023-05-01T17:50:57.913Z,18.88
2023-05-01T17:53:29.198Z,18.86
2023-05-01T17:56:00.557Z,18.87
2023-05-01T17:58:32.107Z,18.85
2023-05-01T18:01:04.852Z,18.83
2023-05-01T18:03:36.425Z,18.82
2023-05-01T18:06:08.295Z,18.80
2023-05-01T18:08:39.734Z,18.78
2023-05-01T18:11:11.908Z,18.76
2023-05-01T18:13:44.068Z,18.75
2023-05-01T18:16:15.923Z,18.77
2023-05-01T18:18:48.347Z,18.76
2023-05-01T18:21:19.832Z,18.75
2023-05-01T18:23:51.141Z,18.73
2023-05-01T18:26:22.628Z,18.74
2023-05-01T18:28:54.155Z,18.77
2023-05-01T18:31:26.954Z,18.76
2023-05-01T18:33:58.687Z,18.78
2023-05-01T18:36:30.765Z,18.81
2023-05-01T18:39:02.195Z,18.87
2023-05-01T18:41:33.435Z,18.93
2023-05-01T18:44:05.364Z,18.96
2023-05-01T18:46:36.928Z,19.00
2023-05-01T18:49:08.300Z,19.08
2023-05-01T18:51:40.004Z,19.06
2023-05-01T18:54:12.479Z,19.08
2023-05-01T18:56:43.465Z,19.07
2023-05-01T18:59:14.529Z,19.06
2023-05-01T19:01:49.264Z,19.05
2023-05-01T19:04:21.243Z,19.01
2023-05-01T19:06:52.481Z,18.98
2023-05-01T19:09:24.430Z,18.94
2023-05-01T19:11:55.980Z,18.89
2023-05-01T19:14:27.471Z,18.86
2023-05-01T19:16:59.051Z,18.82
2023-05-01T19:19:30.735Z,18.81
2023-05-01T19:22:02.209Z,18.81
2023-05-01T19:24:33.948Z,18.79
2023-05-01T19:27:05.184Z,18.76
2023-05-01T19:29:36.964Z,18.75
2023-05-01T19:32:09.124Z,18.75
2023-05-01T19:34:40.442Z,18.74
2023-05-01T19:37:11.804Z,18.73
2023-05-01T19:39:43.560Z,18.71
2023-05-01T19:42:15.996Z,18.69
2023-05-01T19:44:47.605Z,18.68
2023-05-01T19:47:18.888Z,18.66
2023-05-01T19:49:50.125Z,18.65
2023-05-01T19:52:21.286Z,18.62
2023-05-01T19:54:52.609Z,18.58
2023-05-01T19:57:24.344Z,18.55
2023-05-01T19:59:58.986Z,18.51
2023-05-01T20:02:31.132Z,18.49
2023-05-01T20:05:02.746Z,18.48
2023-05-01T20:07:35.167Z,18.49
2023-05-01T20:10:07.367Z,18.50
2023-05-01T20:12:38.883Z,18.51
2023-05-01T20:15:12.449Z,18.52
2023-05-01T20:17:50.130Z,18.52
2023-05-01T20:20:21.769Z,18.53
2023-05-01T20:23:09.991Z,18.62
2023-05-01T20:25:41.744Z,18.70
2023-05-01T20:28:15.234Z,18.77
2023-05-01T20:30:48.170Z,18.83
2023-05-01T20:33:20.226Z,18.85
2023-05-01T20:35:53.301Z,18.87
2023-05-01T20:38:24.926Z,18.91
2023-05-01T20:40:57.380Z,18.98
2023-05-01T20:43:31.554Z,19.00
2023-05-01T20:46:03.124Z,19.05
2023-05-01T20:48:35.298Z,19.10
2023-05-01T20:51:06.813Z,19.11
2023-05-01T20:53:37.975Z,19.12
2023-05-01T20:56:10.005Z,19.09
2023-05-01T20:58:41.958Z,19.08
2023-05-01T21:01:13.636Z,19.06
2023-05-01T21:03:45.026Z,19.03
2023-05-01T21:06:16.574Z,18.99
2023-05-01T21:08:48.602Z,18.95
2023-05-01T21:11:19.720Z,18.93
2023-05-01T21:13:51.659Z,18.95
2023-05-01T21:16:22.803Z,18.95
2023-05-01T21:18:54.393Z,18.96
2023-05-01T21:21:26.539Z,18.97
2023-05-01T21:23:58.250Z,18.96
2023-05-01T21:26:32.153Z,18.97
2023-05-01T21:29:03.992Z,19.02
2023-05-01T21:31:36.976Z,19.05
2023-05-01T21:34:10.175Z,19.02
2023-05-01T21:36:46.086Z,19.01
2023-05-01T21:39:18.020Z,19.02
2023-05-01T21:41:50.580Z,19.06
2023-05-01T21:44:22.320Z,19.11
2023-05-01T21:46:57.361Z,19.15
2023-05-01T21:49:30.519Z,19.15
2023-05-01T21:52:03.774Z,19.15
2023-05-01T21:54:36.967Z,19.14
2023-05-01T21:57:08.327Z,19.14
2023-05-01T21:59:40.435Z,19.12
2023-05-01T22:02:13.131Z,19.10
2023-05-01T22:04:45.160Z,19.11
2023-05-01T22:07:16.909Z,19.11
2023-05-01T22:09:49.255Z,19.09
2023-05-01T22:12:20.922Z,19.05
2023-05-01T22:14:52.572Z,19.02
2023-05-01T22:17:34.316Z,19.01
2023-05-01T22:20:07.295Z,18.98
2023-05-01T22:22:39.487Z,18.97
2023-05-01T22:25:14.014Z,18.98
2023-05-01T22:27:45.794Z,18.98
2023-05-01T22:30:18.377Z,19.00
2023-05-01T22:32:49.446Z,19.00
2023-05-01T22:35:20.952Z,19.00
2023-05-01T22:37:52.725Z,18.98
2023-05-01T22:40:24.406Z,18.97
2023-05-01T22:42:55.826Z,18.97
2023-05-01T22:45:27.526Z,18.97
2023-05-01T22:47:58.513Z,18.96
2023-05-01T22:50:30.188Z,18.93
2023-05-01T22:53:02.026Z,18.87
2023-05-01T22:55:34.284Z,18.88
2023-05-01T22:58:06.600Z,18.86
2023-05-01T23:00:37.907Z,18.84
2023-05-01T23:03:09.585Z,18.83
2023-05-01T23:05:40.620Z,18.83
2023-05-01T23:08:11.964Z,18.84
2023-05-01T23:10:44.515Z,18.82
2023-05-01T23:13:20.234Z,18.80
2023-05-01T23:15:52.533Z,18.79
2023-05-01T23:18:27.497Z,18.81
2023-05-01T23:20:59.240Z,18.83
2023-05-01T23:23:32.552Z,18.86
2023-05-01T23:26:04.450Z,18.88
2023-05-01T23:28:35.766Z,18.90
2023-05-01T23:31:08.593Z,18.90
2023-05-01T23:33:40.247Z,18.92
2023-05-01T23:36:13.219Z,18.93
2023-05-01T23:38:44.645Z,18.95
2023-05-01T23:41:16.115Z,18.95
2023-05-01T23:43:48.687Z,18.93
2023-05-01T23:46:19.845Z,18.92
2023-05-01T23:48:51.687Z,18.92
2023-05-01T23:51:23.129Z,18.93
2023-05-01T23:53:54.861Z,18.93
2023-05-01T23:56:26.075Z,18.95
2023-05-01T23:58:57.382Z,18.95
